createdAt,value
2017-11-15T00:01:56.833Z,38.07
2017-11-15T00:04:24.286Z,39.50
2017-11-15T00:06:51.778Z,44.33
2017-11-15T00:09:19.319Z,38.07
2017-11-15T00:11:46.889Z,41.00
2017-11-15T00:14:14.335Z,35.40
2017-11-15T00:16:41.808Z,36.50
2017-11-15T00:19:09.353Z,34.37
2017-11-15T00:21:36.909Z,40.90
2017-11-15T00:24:04.357Z,37.03
2017-11-15T00:26:31.922Z,40.37
2017-11-15T00:28:59.375Z,35.30
2017-11-15T00:31:26.938Z,37.87
2017-11-15T00:33:54.405Z,41.70
2017-11-15T00:36:21.905Z,36.33
2017-11-15T00:38:49.345Z,36.07
2017-11-15T00:41:17.577Z,38.03
2017-11-15T00:43:45.142Z,34.07
2017-11-15T00:46:12.624Z,32.70
2017-11-15T00:48:40.073Z,30.93
2017-11-15T00:51:07.605Z,30.57
2017-11-15T00:53:35.166Z,34.40
2017-11-15T00:56:02.727Z,33.80
2017-11-15T00:58:30.282Z,31.97
2017-11-15T01:00:57.730Z,30.43
2017-11-15T01:03:25.301Z,36.73
2017-11-15T01:05:52.750Z,31.50
2017-11-15T01:08:20.205Z,29.37
2017-11-15T01:10:47.763Z,31.90
2017-11-15T01:13:15.319Z,26.60
2017-11-15T01:15:42.767Z,31.67
2017-11-15T01:18:10.339Z,29.97
2017-11-15T01:20:37.782Z,29.17
2017-11-15T01:23:05.233Z,25.23
2017-11-15T01:25:32.697Z,27.33
2017-11-15T01:28:00.252Z,27.70
2017-11-15T01:30:27.702Z,24.50
2017-11-15T01:32:55.242Z,22.60
2017-11-15T01:35:22.678Z,26.37
2017-11-15T01:37:50.184Z,19.87
2017-11-15T01:40:17.642Z,29.20
2017-11-15T01:42:45.090Z,24.57
2017-11-15T01:45:12.538Z,25.50
2017-11-15T01:47:39.986Z,21.73
2017-11-15T01:50:07.434Z,25.30
2017-11-15T01:52:34.887Z,24.40
2017-11-15T01:55:02.351Z,29.20
2017-11-15T01:57:29.782Z,27.67
2017-11-15T01:59:57.238Z,23.20
2017-11-15T02:02:24.695Z,27.03
2017-11-15T02:04:52.152Z,29.70
2017-11-15T02:07:19.598Z,28.30
2017-11-15T02:09:47.054Z,29.63
2017-11-15T02:12:14.498Z,28.07
2017-11-15T02:14:41.979Z,29.87
2017-11-15T02:17:09.426Z,28.53
2017-11-15T02:19:36.886Z,26.50
2017-11-15T02:22:04.378Z,27.63
2017-11-15T02:24:31.842Z,26.60
2017-11-15T02:26:59.291Z,28.17
2017-11-15T02:29:26.771Z,29.47
2017-11-15T02:31:54.330Z,30.20
2017-11-15T02:34:21.863Z,30.60
2017-11-15T02:36:49.319Z,33.23
2017-11-15T02:39:16.762Z,27.33
2017-11-15T02:41:44.240Z,29.83
2017-11-15T02:44:11.794Z,34.20
2017-11-15T02:46:39.247Z,29.27
2017-11-15T02:49:06.703Z,29.70
2017-11-15T02:51:34.259Z,29.03
2017-11-15T02:54:06.632Z,30.03
2017-11-15T02:56:34.086Z,26.10
2017-11-15T02:59:01.638Z,31.73
2017-11-15T03:01:29.091Z,30.30
2017-11-15T03:03:56.544Z,30.33
2017-11-15T03:06:23.998Z,31.37
2017-11-15T03:08:51.442Z,31.57
2017-11-15T03:11:18.898Z,28.67
2017-11-15T03:13:46.445Z,28.87
2017-11-15T03:16:13.906Z,28.43
2017-11-15T03:18:41.363Z,28.63
2017-11-15T03:21:14.770Z,32.40
2017-11-15T03:23:42.234Z,26.77
2017-11-15T03:26:09.686Z,30.40
2017-11-15T03:28:37.149Z,27.17
2017-11-15T03:31:04.704Z,24.23
2017-11-15T03:33:32.154Z,23.83
2017-11-15T03:36:00.510Z,29.67
2017-11-15T03:38:27.990Z,25.23
2017-11-15T03:40:55.443Z,27.73
2017-11-15T03:43:22.895Z,28.10
2017-11-15T03:45:50.365Z,32.33
2017-11-15T03:48:17.814Z,29.17
2017-11-15T03:50:45.277Z,27.67
2017-11-15T03:53:12.735Z,27.57
2017-11-15T03:55:40.266Z,25.40
2017-11-15T03:58:07.734Z,26.77
2017-11-15T04:00:35.265Z,27.00
2017-11-15T04:03:02.715Z,27.63
2017-11-15T04:05:30.211Z,23.70
2017-11-15T04:07:57.762Z,28.70
2017-11-15T04:10:25.218Z,25.50
2017-11-15T04:12:52.676Z,27.00
2017-11-15T04:15:20.234Z,25.73
2017-11-15T04:17:47.802Z,23.63
2017-11-15T04:20:15.347Z,28.73
2017-11-15T04:22:42.807Z,25.90
2017-11-15T04:25:10.366Z,27.90
2017-11-15T04:27:37.930Z,27.57
2017-11-15T04:30:05.366Z,26.63
2017-11-15T04:32:32.848Z,30.87
2017-11-15T04:35:00.310Z,28.27
2017-11-15T04:37:27.749Z,28.40
2017-11-15T04:39:55.269Z,26.87
2017-11-15T04:42:22.810Z,27.80
2017-11-15T04:44:50.277Z,31.70
2017-11-15T04:47:17.722Z,31.70
2017-11-15T04:49:45.176Z,28.53
2017-11-15T04:52:12.623Z,28.87
2017-11-15T04:54:40.843Z,27.80
2017-11-15T04:57:08.302Z,32.40
2017-11-15T04:59:35.758Z,28.20
2017-11-15T05:02:03.203Z,27.03
2017-11-15T05:04:30.695Z,27.90
2017-11-15T05:06:58.139Z,27.93
2017-11-15T05:09:25.689Z,29.37
2017-11-15T05:11:53.342Z,25.37
2017-11-15T05:14:20.808Z,26.93
2017-11-15T05:16:48.267Z,29.23
2017-11-15T05:19:15.814Z,26.90
2017-11-15T05:21:43.258Z,32.00
2017-11-15T05:24:10.831Z,33.60
2017-11-15T05:26:38.382Z,31.23
2017-11-15T05:29:05.833Z,29.73
2017-11-15T05:31:33.402Z,24.67
2017-11-15T05:34:00.854Z,27.50
2017-11-15T05:36:28.313Z,26.97
2017-11-15T05:38:55.770Z,24.63
2017-11-15T05:41:23.251Z,29.97
2017-11-15T05:43:50.683Z,24.97
2017-11-15T05:46:18.143Z,27.20
2017-11-15T05:48:45.593Z,26.80
2017-11-15T05:51:13.050Z,25.90
2017-11-15T05:53:40.532Z,24.20
2017-11-15T05:56:08.775Z,28.33
2017-11-15T05:58:36.357Z,25.70
2017-11-15T06:01:04.721Z,22.70
2017-11-15T06:03:32.270Z,23.30
2017-11-15T06:05:59.817Z,25.70
2017-11-15T06:08:27.388Z,23.63
2017-11-15T06:10:54.842Z,23.00
2017-11-15T06:13:22.360Z,24.37
2017-11-15T06:15:49.811Z,25.53
2017-11-15T06:18:17.214Z,27.50
2017-11-15T06:20:44.839Z,24.33
2017-11-15T06:23:12.321Z,24.20
2017-11-15T06:25:39.695Z,26.80
2017-11-15T06:28:07.188Z,22.83
2017-11-15T06:30:34.623Z,27.67
2017-11-15T06:33:02.274Z,24.00
2017-11-15T06:35:29.724Z,21.00
2017-11-15T06:37:57.120Z,21.57
2017-11-15T06:40:24.530Z,25.07
2017-11-15T06:42:52.015Z,23.13
2017-11-15T06:45:19.470Z,25.20
2017-11-15T06:47:46.946Z,21.00
2017-11-15T06:50:14.398Z,30.17
2017-11-15T06:52:41.964Z,22.43
2017-11-15T06:55:09.407Z,24.20
2017-11-15T06:57:36.859Z,24.23
2017-11-15T07:00:04.323Z,24.13
2017-11-15T07:02:31.778Z,26.93
2017-11-15T07:04:59.266Z,23.77
2017-11-15T07:07:26.819Z,25.33
2017-11-15T07:09:54.270Z,26.67
2017-11-15T07:12:21.730Z,23.47
2017-11-15T07:14:49.185Z,25.80
2017-11-15T07:17:16.629Z,26.40
2017-11-15T07:19:44.098Z,23.87
2017-11-15T07:22:11.659Z,27.30
2017-11-15T07:24:39.150Z,28.40
2017-11-15T07:27:07.366Z,28.30
2017-11-15T07:29:34.847Z,24.80
2017-11-15T07:32:02.372Z,22.83
2017-11-15T07:34:29.810Z,22.87
2017-11-15T07:36:57.314Z,20.50
2017-11-15T07:39:24.873Z,24.13
2017-11-15T07:41:52.334Z,22.97
2017-11-15T07:44:19.785Z,29.20
2017-11-15T07:46:47.245Z,23.07
2017-11-15T07:49:14.690Z,22.77
2017-11-15T07:51:42.424Z,26.47
2017-11-15T07:54:09.915Z,25.87
2017-11-15T07:56:37.535Z,25.67
2017-11-15T07:59:05.010Z,26.17
2017-11-15T08:01:32.509Z,29.47
2017-11-15T08:03:59.974Z,28.50
2017-11-15T08:06:28.195Z,25.57
2017-11-15T08:08:55.637Z,25.03
2017-11-15T08:11:23.230Z,24.43
2017-11-15T08:13:50.757Z,24.63
2017-11-15T08:16:18.247Z,26.60
2017-11-15T08:18:45.796Z,28.67
2017-11-15T08:21:13.357Z,31.20
2017-11-15T08:23:40.807Z,25.57
2017-11-15T08:26:08.267Z,28.57
2017-11-15T08:28:35.791Z,26.40
2017-11-15T08:31:03.350Z,26.90
2017-11-15T08:33:30.831Z,24.27
2017-11-15T08:35:58.288Z,25.80
2017-11-15T08:38:25.920Z,27.67
2017-11-15T08:40:53.357Z,25.40
2017-11-15T08:43:20.803Z,25.10
2017-11-15T08:45:49.030Z,22.00
2017-11-15T08:48:16.499Z,29.73
2017-11-15T08:50:43.954Z,27.43
2017-11-15T08:53:11.503Z,26.20
2017-11-15T08:55:38.960Z,24.37
2017-11-15T08:58:06.588Z,24.53
2017-11-15T09:00:34.070Z,22.90
2017-11-15T09:03:01.518Z,25.43
2017-11-15T09:05:29.058Z,25.57
2017-11-15T09:07:56.507Z,23.73
2017-11-15T09:10:23.962Z,27.80
2017-11-15T09:12:51.422Z,22.27
2017-11-15T09:17:53.633Z,30.00
2017-11-15T09:20:21.083Z,26.00
2017-11-15T09:22:48.543Z,27.67
2017-11-15T09:25:15.995Z,28.23
2017-11-15T09:27:43.458Z,27.03
2017-11-15T09:30:10.911Z,26.30
2017-11-15T09:32:38.375Z,24.47
2017-11-15T09:35:05.826Z,25.30
2017-11-15T09:37:33.282Z,26.33
2017-11-15T09:40:00.726Z,24.33
2017-11-15T09:42:28.187Z,27.07
2017-11-15T09:44:55.638Z,28.47
2017-11-15T09:47:23.085Z,28.00
2017-11-15T09:49:50.538Z,22.40
2017-11-15T09:52:18.010Z,29.00
2017-11-15T09:54:45.463Z,25.20
2017-11-15T09:57:12.922Z,24.10
2017-11-15T09:59:40.379Z,25.07
2017-11-15T10:02:07.857Z,23.97
2017-11-15T10:04:36.086Z,24.17
2017-11-15T10:07:03.569Z,25.17
2017-11-15T10:09:31.118Z,22.17
2017-11-15T10:11:58.674Z,20.70
2017-11-15T10:14:26.230Z,22.63
2017-11-15T10:16:53.674Z,23.57
2017-11-15T10:19:21.253Z,20.10
2017-11-15T10:21:48.695Z,22.80
2017-11-15T10:24:16.155Z,23.93
2017-11-15T10:26:43.725Z,22.20
2017-11-15T10:29:11.274Z,18.57
2017-11-15T10:31:38.731Z,22.27
2017-11-15T10:34:06.190Z,21.33
2017-11-15T10:36:33.741Z,20.37
2017-11-15T10:39:01.186Z,20.90
2017-11-15T10:41:28.632Z,18.43
2017-11-15T10:43:56.161Z,19.20
2017-11-15T10:46:24.459Z,23.70
2017-11-15T10:48:51.967Z,21.20
2017-11-15T10:51:19.472Z,19.20
2017-11-15T10:53:46.906Z,19.23
2017-11-15T10:56:14.412Z,18.93
2017-11-15T10:58:42.578Z,22.47
2017-11-15T11:01:10.038Z,19.50
2017-11-15T11:03:37.503Z,19.90
2017-11-15T11:06:05.054Z,19.27
2017-11-15T11:08:32.511Z,16.87
2017-11-15T11:10:59.965Z,19.87
2017-11-15T11:13:27.398Z,20.93
2017-11-15T11:15:54.871Z,18.83
2017-11-15T11:18:22.335Z,19.60
2017-11-15T11:20:49.857Z,18.57
2017-11-15T11:23:18.862Z,17.93
2017-11-15T11:25:46.335Z,19.47
2017-11-15T11:28:13.791Z,17.57
2017-11-15T11:30:41.241Z,23.80
2017-11-15T11:33:08.702Z,17.57
2017-11-15T11:35:36.266Z,18.90
2017-11-15T11:38:03.721Z,17.67
2017-11-15T11:40:31.170Z,17.70
2017-11-15T11:42:58.738Z,16.80
2017-11-15T11:45:26.195Z,18.90
2017-11-15T11:47:53.690Z,20.40
2017-11-15T11:50:21.899Z,20.10
2017-11-15T11:52:49.440Z,19.50
2017-11-15T11:55:16.883Z,19.30
2017-11-15T11:57:44.378Z,16.90
2017-11-15T12:00:11.846Z,18.67
2017-11-15T12:02:39.303Z,17.17
2017-11-15T12:05:06.839Z,17.27
2017-11-15T12:07:34.285Z,15.40
2017-11-15T12:10:01.762Z,19.90
2017-11-15T12:12:29.206Z,19.57
2017-11-15T12:14:56.693Z,16.40
2017-11-15T12:17:24.146Z,16.47
2017-11-15T12:19:53.122Z,15.10
2017-11-15T12:22:20.675Z,17.60
2017-11-15T12:24:48.126Z,16.87
2017-11-15T12:27:15.685Z,20.73
2017-11-15T12:29:43.130Z,15.33
2017-11-15T12:32:10.595Z,18.23
2017-11-15T12:34:38.060Z,17.63
2017-11-15T12:37:05.531Z,17.67
2017-11-15T12:39:32.974Z,18.23
2017-11-15T12:42:00.425Z,16.13
2017-11-15T12:44:27.950Z,17.47
2017-11-15T12:46:55.401Z,20.50
2017-11-15T12:49:22.888Z,19.50
2017-11-15T12:51:50.521Z,20.20
2017-11-15T12:54:17.978Z,15.23
2017-11-15T12:56:45.438Z,17.00
2017-11-15T12:59:12.913Z,15.30
2017-11-15T13:01:40.362Z,18.33
2017-11-15T13:04:07.835Z,15.90
2017-11-15T13:06:35.298Z,16.43
2017-11-15T13:09:02.746Z,18.63
2017-11-15T13:11:30.302Z,17.50
2017-11-15T13:13:57.750Z,18.43
2017-11-15T13:16:25.201Z,19.03
2017-11-15T13:18:52.766Z,19.80
2017-11-15T13:21:20.329Z,16.47
2017-11-15T13:23:47.802Z,19.53
2017-11-15T13:26:15.344Z,19.20
2017-11-15T13:28:43.735Z,20.40
2017-11-15T13:31:11.195Z,17.43
2017-11-15T13:33:38.726Z,18.20
2017-11-15T13:36:06.204Z,23.90
2017-11-15T13:38:33.662Z,20.20
2017-11-15T13:41:01.113Z,21.50
2017-11-15T13:43:28.564Z,25.00
2017-11-15T13:45:56.040Z,21.60
2017-11-15T13:48:24.260Z,22.93
2017-11-15T13:50:51.735Z,26.30
2017-11-15T13:53:19.195Z,26.53
2017-11-15T13:55:46.643Z,29.00
2017-11-15T13:58:14.106Z,24.97
2017-11-15T14:00:41.558Z,25.40
2017-11-15T14:03:09.119Z,26.77
2017-11-15T14:05:36.572Z,22.90
2017-11-15T14:08:04.027Z,27.83
2017-11-15T14:10:31.466Z,33.40
2017-11-15T14:12:58.937Z,36.57
2017-11-15T14:15:26.401Z,36.53
2017-11-15T14:17:53.912Z,35.67
2017-11-15T14:20:21.399Z,37.27
2017-11-15T14:22:48.852Z,34.70
2017-11-15T14:25:16.498Z,38.40
2017-11-15T14:27:43.955Z,33.90
2017-11-15T14:30:11.425Z,38.97
2017-11-15T14:32:38.999Z,34.43
2017-11-15T14:35:06.471Z,36.10
2017-11-15T14:37:34.006Z,39.70
2017-11-15T14:40:01.486Z,38.83
2017-11-15T14:42:29.702Z,40.80
2017-11-15T14:44:57.151Z,39.77
2017-11-15T14:47:24.619Z,42.80
2017-11-15T14:49:52.078Z,43.10
2017-11-15T14:52:19.531Z,36.07
2017-11-15T14:54:47.008Z,37.20
2017-11-15T14:57:14.472Z,37.13
2017-11-15T14:59:42.017Z,40.57
2017-11-15T15:02:09.603Z,34.53
2017-11-15T15:04:37.187Z,37.60
2017-11-15T15:07:04.666Z,45.60
2017-11-15T15:09:32.148Z,38.50
2017-11-15T15:11:59.607Z,41.30
2017-11-15T15:14:27.137Z,37.93
2017-11-15T15:16:54.622Z,41.97
2017-11-15T15:19:22.074Z,35.00
2017-11-15T15:21:49.707Z,38.10
2017-11-15T15:24:17.199Z,42.10
2017-11-15T15:26:44.746Z,45.10
2017-11-15T15:29:12.209Z,39.97
2017-11-15T15:31:39.666Z,37.70
2017-11-15T15:34:07.226Z,34.73
2017-11-15T15:36:34.862Z,38.13
2017-11-15T15:39:03.083Z,41.73
2017-11-15T15:41:31.325Z,41.63
2017-11-15T15:43:58.783Z,39.37
2017-11-15T15:46:26.234Z,33.83
2017-11-15T15:48:53.816Z,37.67
2017-11-15T15:51:21.365Z,40.60
2017-11-15T15:53:48.805Z,33.43
2017-11-15T15:56:16.257Z,38.17
2017-11-15T15:58:44.378Z,37.63
2017-11-15T16:01:11.827Z,33.47
2017-11-15T16:03:40.043Z,34.87
2017-11-15T16:06:07.496Z,37.17
2017-11-15T16:08:34.971Z,31.27
2017-11-15T16:11:02.431Z,34.23
2017-11-15T16:13:29.990Z,34.50
2017-11-15T16:15:57.496Z,36.37
2017-11-15T16:18:25.009Z,32.63
2017-11-15T16:20:52.465Z,30.63
2017-11-15T16:23:19.910Z,30.40
2017-11-15T16:25:47.389Z,30.73
2017-11-15T16:28:15.720Z,30.93
2017-11-15T16:30:43.171Z,29.17
2017-11-15T16:33:10.728Z,29.40
2017-11-15T16:35:38.179Z,32.57
2017-11-15T16:38:05.680Z,27.70
2017-11-15T16:40:33.166Z,27.33
2017-11-15T16:43:00.701Z,30.53
2017-11-15T16:45:28.130Z,27.63
2017-11-15T16:47:55.690Z,28.63
2017-11-15T16:50:23.184Z,28.93
2017-11-15T16:52:51.444Z,29.10
2017-11-15T16:55:19.056Z,30.70
2017-11-15T16:57:46.533Z,27.27
2017-11-15T17:00:13.986Z,26.43
2017-11-15T17:02:41.550Z,28.80
2017-11-15T17:05:09.002Z,27.17
2017-11-15T17:07:36.482Z,29.97
2017-11-15T17:10:03.997Z,29.83
2017-11-15T17:12:31.489Z,29.97
2017-11-15T17:14:58.938Z,32.07
2017-11-15T17:17:26.453Z,29.00
2017-11-15T17:19:53.920Z,32.07
2017-11-15T17:22:21.369Z,32.47
2017-11-15T17:24:48.827Z,30.00
2017-11-15T17:27:16.305Z,32.77
2017-11-15T17:29:43.782Z,40.20
2017-11-15T17:32:11.265Z,34.83
2017-11-15T17:34:38.762Z,36.47
2017-11-15T17:37:06.208Z,35.13
2017-11-15T17:39:33.750Z,36.80
2017-11-15T17:42:01.218Z,34.70
2017-11-15T17:44:28.654Z,39.60
2017-11-15T17:46:56.129Z,41.80
2017-11-15T17:49:23.688Z,35.20
2017-11-15T17:51:51.247Z,38.60
2017-11-15T17:54:18.686Z,37.47
2017-11-15T17:56:46.146Z,35.53
2017-11-15T17:59:13.594Z,35.30
2017-11-15T18:01:41.041Z,38.60
2017-11-15T18:04:08.549Z,41.97
2017-11-15T18:06:36.126Z,39.80
2017-11-15T18:09:03.580Z,37.57
2017-11-15T18:11:31.039Z,42.77
2017-11-15T18:13:58.587Z,43.23
2017-11-15T18:16:26.167Z,34.53
2017-11-15T18:18:54.379Z,37.83
2017-11-15T18:21:21.939Z,44.20
2017-11-15T18:23:49.378Z,39.37
2017-11-15T18:26:16.831Z,43.63
2017-11-15T18:28:44.297Z,36.57
2017-11-15T18:31:11.812Z,35.03
2017-11-15T18:33:39.253Z,35.30
2017-11-15T18:36:06.720Z,34.13
2017-11-15T18:38:34.178Z,35.57
2017-11-15T18:41:01.636Z,38.77
2017-11-15T18:43:29.139Z,36.03
2017-11-15T18:45:56.570Z,38.33
2017-11-15T18:48:24.033Z,35.43
2017-11-15T18:50:51.549Z,42.50
2017-11-15T18:53:20.551Z,35.20
2017-11-15T18:55:48.151Z,40.47
2017-11-15T18:58:15.602Z,39.03
2017-11-15T19:00:43.047Z,38.13
2017-11-15T19:03:10.513Z,39.60
2017-11-15T19:05:38.034Z,42.53
2017-11-15T19:08:05.492Z,34.63
2017-11-15T19:10:32.950Z,33.83
2017-11-15T19:13:01.267Z,33.53
2017-11-15T19:15:28.714Z,36.80
2017-11-15T19:17:56.177Z,38.10
2017-11-15T19:20:23.634Z,35.07
2017-11-15T19:22:51.094Z,32.73
2017-11-15T19:25:18.546Z,37.93
2017-11-15T19:27:45.998Z,34.67
2017-11-15T19:30:13.504Z,31.37
2017-11-15T19:32:40.991Z,32.60
2017-11-15T19:35:09.223Z,36.67
2017-11-15T19:37:36.691Z,32.30
2017-11-15T19:40:04.234Z,32.30
2017-11-15T19:42:31.835Z,33.10
2017-11-15T19:44:59.291Z,33.03
2017-11-15T19:47:26.748Z,30.53
2017-11-15T19:49:54.234Z,30.43
2017-11-15T19:52:21.717Z,29.97
2017-11-15T19:54:49.173Z,34.07
2017-11-15T19:57:16.654Z,32.60
2017-11-15T19:59:44.106Z,34.73
2017-11-15T20:02:12.322Z,31.33
2017-11-15T20:04:39.817Z,32.03
2017-11-15T20:07:07.368Z,31.20
2017-11-15T20:09:34.818Z,29.17
2017-11-15T20:12:02.280Z,35.50
2017-11-15T20:14:29.722Z,32.77
2017-11-15T20:16:57.186Z,35.40
2017-11-15T20:19:24.641Z,39.07
2017-11-15T20:21:52.202Z,37.30
2017-11-15T20:24:19.717Z,31.43
2017-11-15T20:26:47.223Z,35.00
2017-11-15T20:29:14.703Z,40.10
2017-11-15T20:31:42.937Z,34.80
2017-11-15T20:34:10.415Z,38.17
2017-11-15T20:36:37.958Z,32.30
2017-11-15T20:39:05.411Z,34.83
2017-11-15T20:41:32.967Z,36.33
2017-11-15T20:44:00.535Z,34.10
2017-11-15T20:46:27.987Z,36.67
2017-11-15T20:48:55.561Z,37.33
2017-11-15T20:51:23.094Z,31.17
2017-11-15T20:53:50.541Z,35.93
2017-11-15T20:56:18.019Z,31.60
2017-11-15T20:58:45.730Z,32.30
2017-11-15T21:01:13.226Z,32.97
2017-11-15T21:03:40.686Z,32.83
2017-11-15T21:06:08.166Z,34.90
2017-11-15T21:08:36.428Z,30.90
2017-11-15T21:11:03.970Z,33.10
2017-11-15T21:13:31.526Z,29.73
2017-11-15T21:15:58.982Z,30.00
2017-11-15T21:18:26.434Z,28.30
2017-11-15T21:20:53.890Z,33.80
2017-11-15T21:23:21.354Z,31.30
2017-11-15T21:25:48.942Z,36.20
2017-11-15T21:28:17.164Z,28.43
2017-11-15T21:30:44.608Z,35.20
2017-11-15T21:33:12.174Z,35.30
2017-11-15T21:35:40.747Z,35.97
2017-11-15T21:38:08.232Z,31.93
2017-11-15T21:40:35.763Z,31.27
2017-11-15T21:43:03.250Z,33.17
2017-11-15T21:45:30.802Z,31.87
2017-11-15T21:47:58.402Z,32.37
2017-11-15T21:50:26.609Z,39.80
2017-11-15T21:52:54.070Z,39.60
2017-11-15T21:55:21.518Z,33.70
2017-11-15T21:57:48.972Z,33.90
2017-11-15T22:00:16.465Z,33.97
2017-11-15T22:02:44.013Z,38.77
2017-11-15T22:05:11.574Z,30.67
2017-11-15T22:07:39.134Z,38.40
2017-11-15T22:10:06.593Z,38.20
2017-11-15T22:12:34.806Z,44.77
2017-11-15T22:15:02.258Z,33.83
2017-11-15T22:17:30.470Z,35.83
2017-11-15T22:19:57.920Z,37.63
2017-11-15T22:22:25.401Z,32.47
2017-11-15T22:24:52.850Z,40.57
2017-11-15T22:27:20.309Z,41.23
2017-11-15T22:29:47.866Z,47.43
2017-11-15T22:32:15.311Z,43.70
2017-11-15T22:34:42.852Z,49.17
2017-11-15T22:37:10.282Z,47.83
2017-11-15T22:39:37.739Z,41.03
2017-11-15T22:42:05.188Z,47.67
2017-11-15T22:44:33.413Z,39.60
2017-11-15T22:47:00.875Z,42.50
2017-11-15T22:49:28.448Z,38.37
2017-11-15T22:51:55.909Z,37.93
2017-11-15T22:54:24.162Z,44.07
2017-11-15T22:56:51.618Z,44.53
2017-11-15T22:59:19.079Z,37.67
2017-11-15T23:01:46.548Z,41.97
2017-11-15T23:04:14.091Z,47.43
2017-11-15T23:06:41.548Z,44.80
2017-11-15T23:09:09.135Z,42.70
2017-11-15T23:11:37.450Z,48.80
2017-11-15T23:14:04.934Z,48.60
2017-11-15T23:16:32.522Z,43.30
2017-11-15T23:18:59.972Z,49.17
2017-11-15T23:21:28.246Z,45.90
2017-11-15T23:23:55.718Z,45.00
2017-11-15T23:26:23.938Z,46.50
2017-11-15T23:28:51.392Z,48.03
2017-11-15T23:31:18.846Z,47.33
2017-11-15T23:33:46.310Z,43.27
2017-11-15T23:36:13.873Z,47.90
2017-11-15T23:38:41.342Z,51.93
2017-11-15T23:41:08.913Z,51.67
2017-11-15T23:43:37.165Z,46.03
2017-11-15T23:46:04.624Z,53.27
2017-11-15T23:48:32.070Z,46.80
2017-11-15T23:50:59.528Z,58.80
2017-11-15T23:53:26.974Z,50.43
2017-11-15T23:55:54.449Z,44.67
2017-11-15T23:58:21.895Z,45.67
